21°C Temp
10°C Dewpoint
% Humidity
Temperature
5 KM/H
3 MPH
3 KTS
260°
Due West

Wind Speed
Clear
Conditions
Pressure 1017.92 (hPa) - 30.06 (in)
Visibility 6.2 (mi) - 10.0 (km)

Current Conditions
LIME
Location 30(km)
Metar :LIME 010820Z 26003KT 160V320 CAVOK 21/10 Q1018 NOSIG
Mon 1st June 09:20 am

Airport
  Metar Aviation API Data Provided by https://www.checkwx.com/ PHP scripts by weather34.com ©2020